createdAt,value
2022-08-17T00:01:51.768Z,71.39
2022-08-17T00:04:20.394Z,71.57
2022-08-17T00:06:49.298Z,71.74
2022-08-17T00:09:19.070Z,71.47
2022-08-17T00:12:42.216Z,71.77
2022-08-17T00:14:36.124Z,71.79
2022-08-17T00:17:04.747Z,72.28
2022-08-17T00:19:32.991Z,72.36
2022-08-17T00:22:35.265Z,73.29
2022-08-17T00:24:49.954Z,74.06
2022-08-17T00:27:17.369Z,73.35
2022-08-17T00:29:46.072Z,73.17
2022-08-17T00:33:11.987Z,72.96
2022-08-17T00:35:04.797Z,75.56
2022-08-17T00:37:31.704Z,75.24
2022-08-17T00:39:59.580Z,76.33
2022-08-17T00:42:30.969Z,75.30
2022-08-17T00:44:58.705Z,74.52
2022-08-17T00:47:25.881Z,74.22
2022-08-17T00:49:53.106Z,74.21
2022-08-17T00:52:23.243Z,74.14
2022-08-17T00:54:52.388Z,74.08
2022-08-17T00:57:23.492Z,74.10
2022-08-17T01:00:02.430Z,74.10
2022-08-17T01:02:42.190Z,74.51
2022-08-17T01:05:21.297Z,75.34
2022-08-17T01:07:50.986Z,75.19
2022-08-17T01:11:00.476Z,75.03
2022-08-17T01:13:07.957Z,75.12
2022-08-17T01:15:37.580Z,78.58
2022-08-17T01:18:06.041Z,78.83
2022-08-17T01:20:41.878Z,77.52
2022-08-17T01:23:20.460Z,76.82
2022-08-17T01:25:53.630Z,76.30
2022-08-17T01:28:53.122Z,76.15
2022-08-17T01:31:09.237Z,75.71
2022-08-17T01:33:36.436Z,75.74
2022-08-17T01:36:06.286Z,75.66
2022-08-17T01:38:37.553Z,75.39
2022-08-17T01:41:10.661Z,75.52
2022-08-17T01:43:45.532Z,75.64
2022-08-17T01:46:17.150Z,75.95
2022-08-17T01:48:47.378Z,75.69
2022-08-17T01:51:15.714Z,75.71
2022-08-17T01:53:47.346Z,75.85
2022-08-17T01:56:17.635Z,76.43
2022-08-17T01:58:44.590Z,78.41
2022-08-17T02:01:14.856Z,77.53
2022-08-17T02:03:42.388Z,77.45
2022-08-17T02:06:27.792Z,77.46
2022-08-17T02:09:02.448Z,77.45
2022-08-17T02:11:33.163Z,77.35
2022-08-17T02:14:03.275Z,77.07
2022-08-17T02:16:37.631Z,77.00
2022-08-17T02:19:11.812Z,76.97
2022-08-17T02:21:39.538Z,77.12
2022-08-17T02:24:12.954Z,77.03
2022-08-17T02:26:39.917Z,77.51
2022-08-17T02:29:07.300Z,77.29
2022-08-17T02:31:35.595Z,77.22
2022-08-17T02:34:04.934Z,77.14
2022-08-17T02:36:35.423Z,77.30
2022-08-17T02:39:08.061Z,77.55
2022-08-17T02:41:35.494Z,77.70
2022-08-17T02:44:02.700Z,77.52
2022-08-17T02:46:31.100Z,77.46
2022-08-17T02:48:58.824Z,77.68
2022-08-17T02:51:26.793Z,78.33
2022-08-17T02:54:39.717Z,78.47
2022-08-17T02:56:40.565Z,78.39
2022-08-17T02:59:07.453Z,78.53
2022-08-17T03:01:34.474Z,78.85
2022-08-17T03:04:01.454Z,79.02
2022-08-17T03:06:29.250Z,79.11
2022-08-17T03:08:56.985Z,79.61
2022-08-17T03:11:23.841Z,81.93
2022-08-17T03:13:51.114Z,83.34
2022-08-17T03:16:18.106Z,84.66
2022-08-17T03:18:44.927Z,83.04
2022-08-17T03:21:12.347Z,82.34
2022-08-17T03:23:41.211Z,81.74
2022-08-17T03:26:12.396Z,81.41
2022-08-17T03:28:42.442Z,81.04
2022-08-17T03:31:09.399Z,80.99
2022-08-17T03:33:36.229Z,81.65
2022-08-17T03:36:03.467Z,81.88
2022-08-17T03:38:30.433Z,82.00
2022-08-17T03:41:06.629Z,82.39
2022-08-17T03:43:34.687Z,81.76
2022-08-17T03:46:28.310Z,81.33
2022-08-17T03:49:24.260Z,80.97
2022-08-17T03:52:09.788Z,80.47
2022-08-17T03:54:55.660Z,80.13
2022-08-17T03:57:22.682Z,79.86
2022-08-17T03:59:50.728Z,79.78
2022-08-17T04:02:27.703Z,79.83
2022-08-17T04:04:54.660Z,79.99
2022-08-17T04:07:24.010Z,79.69
2022-08-17T04:09:52.530Z,79.48
2022-08-17T04:12:21.909Z,79.38
2022-08-17T04:14:52.792Z,79.28
2022-08-17T04:17:25.987Z,79.38
2022-08-17T04:19:55.505Z,80.46
2022-08-17T04:22:31.454Z,80.87
2022-08-17T04:25:15.826Z,82.36
2022-08-17T04:27:42.825Z,81.51
2022-08-17T04:30:10.462Z,80.55
2022-08-17T04:33:07.259Z,80.07
2022-08-17T04:35:41.261Z,79.72
2022-08-17T04:38:10.151Z,77.91
2022-08-17T04:40:56.341Z,74.59
2022-08-17T04:43:24.961Z,74.82
2022-08-17T04:46:06.711Z,76.00
2022-08-17T04:48:46.029Z,74.54
2022-08-17T04:51:33.042Z,67.60
2022-08-17T04:54:09.896Z,63.43
2022-08-17T04:56:37.254Z,58.52
2022-08-17T04:59:09.023Z,59.51
2022-08-17T05:01:38.108Z,59.56
2022-08-17T05:04:33.187Z,57.21
2022-08-17T05:06:57.576Z,58.31
2022-08-17T05:09:24.529Z,57.29
2022-08-17T05:11:51.405Z,55.38
2022-08-17T05:14:18.256Z,58.95
2022-08-17T05:16:48.246Z,56.17
2022-08-17T05:19:15.066Z,54.19
2022-08-17T05:21:41.945Z,53.35
2022-08-17T05:24:38.599Z,53.59
2022-08-17T05:27:06.286Z,57.07
2022-08-17T05:29:35.443Z,56.16
2022-08-17T05:32:39.054Z,54.94
2022-08-17T05:35:00.782Z,56.36
2022-08-17T05:37:27.773Z,55.32
2022-08-17T05:39:58.014Z,56.39
2022-08-17T05:42:24.863Z,56.56
2022-08-17T05:44:51.831Z,56.19
2022-08-17T05:47:18.702Z,56.24
2022-08-17T05:49:49.052Z,55.24
2022-08-17T05:52:22.512Z,55.46
2022-08-17T05:54:49.234Z,55.45
2022-08-17T05:57:42.370Z,55.08
2022-08-17T06:00:29.997Z,54.44
2022-08-17T06:03:27.921Z,55.31
2022-08-17T06:06:02.662Z,54.20
2022-08-17T06:08:55.823Z,53.62
2022-08-17T06:11:31.389Z,53.74
2022-08-17T06:14:22.253Z,53.12
2022-08-17T06:16:53.893Z,52.25
2022-08-17T06:19:38.852Z,51.76
2022-08-17T06:22:06.590Z,51.08
2022-08-17T06:24:44.087Z,52.15
2022-08-17T06:27:21.826Z,51.31
2022-08-17T06:30:09.275Z,51.68
2022-08-17T06:32:45.331Z,51.24
2022-08-17T06:35:15.575Z,50.74
2022-08-17T06:37:48.947Z,50.23
2022-08-17T06:40:45.637Z,50.11
2022-08-17T06:43:34.064Z,50.12
2022-08-17T06:46:15.217Z,49.87
2022-08-17T06:49:07.429Z,49.47
2022-08-17T06:51:46.254Z,48.57
2022-08-17T06:54:39.388Z,49.24
2022-08-17T06:57:14.507Z,48.52
2022-08-17T06:59:57.130Z,49.03
2022-08-17T07:02:53.132Z,49.42
2022-08-17T07:05:23.899Z,48.63
2022-08-17T07:08:07.790Z,47.21
2022-08-17T07:10:48.489Z,46.75
2022-08-17T07:13:31.757Z,46.31
2022-08-17T07:16:11.132Z,45.22
2022-08-17T07:18:38.257Z,44.59
2022-08-17T07:21:17.338Z,43.87
2022-08-17T07:24:02.313Z,42.96
2022-08-17T07:26:29.699Z,43.06
2022-08-17T07:28:56.720Z,42.27
2022-08-17T07:31:25.331Z,41.66
2022-08-17T07:34:14.509Z,41.34
2022-08-17T07:36:42.565Z,38.97
2022-08-17T07:39:10.804Z,40.05
2022-08-17T07:41:57.852Z,39.51
2022-08-17T07:44:27.124Z,38.86
2022-08-17T07:47:32.720Z,39.02
2022-08-17T07:50:25.955Z,38.95
2022-08-17T07:52:54.144Z,39.09
2022-08-17T07:55:40.533Z,41.08
2022-08-17T07:58:07.918Z,40.92
2022-08-17T08:00:35.047Z,39.17
2022-08-17T08:03:13.290Z,37.99
2022-08-17T08:06:02.054Z,37.49
2022-08-17T08:08:31.855Z,37.15
2022-08-17T08:11:15.406Z,37.92
2022-08-17T08:13:45.676Z,36.52
2022-08-17T08:16:29.391Z,37.15
2022-08-17T08:19:01.253Z,37.74
2022-08-17T08:21:49.483Z,36.12
2022-08-17T08:25:28.730Z,35.31
2022-08-17T08:28:07.887Z,34.63
2022-08-17T08:30:37.611Z,34.22
2022-08-17T08:33:17.253Z,34.73
2022-08-17T08:35:54.616Z,34.25
2022-08-17T08:38:30.926Z,35.05
2022-08-17T08:41:06.154Z,34.97
2022-08-17T08:43:53.200Z,34.71
2022-08-17T08:46:22.813Z,33.74
2022-08-17T08:49:58.945Z,33.48
2022-08-17T08:52:30.921Z,34.18
2022-08-17T08:55:07.556Z,34.41
2022-08-17T08:57:40.269Z,34.29
2022-08-17T09:00:16.839Z,33.59
2022-08-17T09:02:58.746Z,34.29
2022-08-17T09:05:48.371Z,34.77
2022-08-17T09:08:24.533Z,34.47
2022-08-17T09:11:06.077Z,34.37
2022-08-17T09:13:32.857Z,33.15
2022-08-17T09:16:23.211Z,34.86
2022-08-17T09:19:03.367Z,33.42
2022-08-17T09:21:48.015Z,31.88
2022-08-17T09:24:57.075Z,32.85
2022-08-17T09:27:38.436Z,32.05
2022-08-17T09:30:09.954Z,30.91
2022-08-17T09:32:41.935Z,31.46
2022-08-17T09:35:15.905Z,30.79
2022-08-17T09:38:01.271Z,31.02
2022-08-17T09:40:57.041Z,30.00
2022-08-17T09:43:56.838Z,32.11
2022-08-17T09:47:19.434Z,31.38
2022-08-17T09:49:53.309Z,30.54
2022-08-17T09:52:28.874Z,30.57
2022-08-17T09:54:57.465Z,30.74
2022-08-17T09:57:31.371Z,31.21
2022-08-17T10:00:13.678Z,31.53
2022-08-17T10:02:54.407Z,32.69
2022-08-17T10:05:33.239Z,31.87
2022-08-17T10:08:02.695Z,31.59
2022-08-17T10:11:33.340Z,31.13
2022-08-17T10:14:37.860Z,30.62
2022-08-17T10:17:08.465Z,28.80
2022-08-17T10:19:39.472Z,29.30
2022-08-17T10:22:58.456Z,29.87
2022-08-17T10:26:00.041Z,28.16
2022-08-17T10:28:30.626Z,29.33
2022-08-17T10:33:53.398Z,28.96
2022-08-17T10:36:34.469Z,28.24
2022-08-17T10:39:20.446Z,27.90
2022-08-17T10:41:51.305Z,27.94
2022-08-17T10:45:04.748Z,27.16
2022-08-17T10:48:06.718Z,26.20
2022-08-17T10:50:55.937Z,26.35
2022-08-17T10:53:31.819Z,25.76
2022-08-17T10:56:14.106Z,25.78
2022-08-17T10:59:07.412Z,25.37
2022-08-17T11:01:34.244Z,25.90
2022-08-17T11:04:03.963Z,26.24
2022-08-17T11:07:06.228Z,26.59
2022-08-17T11:10:00.215Z,26.89
2022-08-17T11:12:38.617Z,26.40
2022-08-17T11:15:22.423Z,26.32
2022-08-17T11:18:02.556Z,26.82
2022-08-17T11:20:54.752Z,27.50
2022-08-17T11:23:45.725Z,26.22
2022-08-17T11:26:34.811Z,25.99
2022-08-17T11:29:09.598Z,25.57
2022-08-17T11:31:43.537Z,25.74
2022-08-17T11:34:21.667Z,26.23
2022-08-17T11:37:14.756Z,25.54
2022-08-17T11:40:06.101Z,25.69
2022-08-17T11:42:37.508Z,25.54
2022-08-17T11:45:32.285Z,25.24
2022-08-17T11:48:29.352Z,25.54
2022-08-17T11:51:24.304Z,24.87
2022-08-17T11:53:59.877Z,25.14
2022-08-17T11:56:49.454Z,25.17
2022-08-17T11:59:39.496Z,25.10
2022-08-17T12:02:35.333Z,23.80
2022-08-17T12:05:12.306Z,23.70
2022-08-17T12:07:49.528Z,24.72
2022-08-17T12:10:21.493Z,25.33
2022-08-17T12:12:50.474Z,24.78
2022-08-17T12:15:19.829Z,24.65
2022-08-17T12:17:54.201Z,23.92
2022-08-17T12:20:33.370Z,22.82
2022-08-17T12:23:15.082Z,23.79
2022-08-17T12:25:55.445Z,24.32
2022-08-17T12:28:26.842Z,24.57
2022-08-17T12:30:54.405Z,24.58
2022-08-17T12:33:25.203Z,24.49
2022-08-17T12:36:03.071Z,24.57
2022-08-17T12:38:34.435Z,24.65
2022-08-17T12:41:23.578Z,24.85
2022-08-17T12:44:13.365Z,24.73
2022-08-17T12:46:50.725Z,23.14
2022-08-17T12:49:35.604Z,23.84
2022-08-17T12:52:20.468Z,23.05
2022-08-17T12:54:59.635Z,22.89
2022-08-17T12:57:32.805Z,23.07
2022-08-17T13:00:27.105Z,23.91
2022-08-17T13:03:34.293Z,23.87
2022-08-17T13:06:09.506Z,23.72
2022-08-17T13:08:41.213Z,23.75
2022-08-17T13:11:20.229Z,23.94
2022-08-17T13:13:54.271Z,24.00
2022-08-17T13:16:26.757Z,23.91
2022-08-17T13:19:05.059Z,24.03
2022-08-17T13:21:33.272Z,24.15
2022-08-17T13:24:07.988Z,24.30
2022-08-17T13:26:42.647Z,23.47
2022-08-17T13:29:29.063Z,23.35
2022-08-17T13:32:16.761Z,22.62
2022-08-17T13:35:13.475Z,23.78
2022-08-17T13:37:40.724Z,23.84
2022-08-17T13:40:09.936Z,23.30
2022-08-17T13:42:52.086Z,23.22
2022-08-17T13:45:36.767Z,23.40
2022-08-17T13:48:27.426Z,23.02
2022-08-17T13:50:57.329Z,22.66
2022-08-17T13:53:34.273Z,22.64
2022-08-17T13:56:38.329Z,22.76
2022-08-17T13:59:15.691Z,22.97
2022-08-17T14:01:49.684Z,23.10
2022-08-17T14:04:27.822Z,23.30
2022-08-17T14:07:16.029Z,22.97
2022-08-17T14:09:58.046Z,23.14
2022-08-17T14:12:26.804Z,23.18
2022-08-17T14:14:55.155Z,22.51
2022-08-17T14:17:23.226Z,23.46
2022-08-17T14:19:51.152Z,23.05
2022-08-17T14:22:33.112Z,23.42
2022-08-17T14:25:01.723Z,22.62
2022-08-17T14:27:31.866Z,22.54
2022-08-17T14:30:00.383Z,22.41
2022-08-17T14:32:30.295Z,23.11
2022-08-17T14:34:57.993Z,23.01
2022-08-17T14:37:27.978Z,22.33
2022-08-17T14:39:56.397Z,23.22
2022-08-17T14:42:24.967Z,23.22
2022-08-17T14:44:55.584Z,23.59
2022-08-17T14:47:22.813Z,24.22
2022-08-17T14:49:51.277Z,24.23
2022-08-17T14:52:21.795Z,24.17
2022-08-17T14:54:51.373Z,24.55
2022-08-17T14:57:25.808Z,24.42
2022-08-17T15:00:05.282Z,24.50
2022-08-17T15:02:44.042Z,24.45
2022-08-17T15:05:11.008Z,24.20
2022-08-17T15:07:38.016Z,24.65
2022-08-17T15:10:06.218Z,24.48
2022-08-17T15:12:34.745Z,24.73
2022-08-17T15:15:04.813Z,24.61
2022-08-17T15:17:43.679Z,24.50
2022-08-17T15:20:17.652Z,24.69
2022-08-17T15:22:45.624Z,25.27
2022-08-17T15:25:13.518Z,24.73
2022-08-17T15:27:40.660Z,25.05
2022-08-17T15:30:09.872Z,25.22
2022-08-17T15:32:40.653Z,25.35
2022-08-17T15:35:11.787Z,25.48
2022-08-17T15:37:40.260Z,25.52
2022-08-17T15:40:10.482Z,25.58
2022-08-17T15:42:38.546Z,25.62
2022-08-17T15:45:12.310Z,25.65
2022-08-17T15:47:40.376Z,25.58
2022-08-17T15:50:10.717Z,25.32
2022-08-17T15:52:40.391Z,25.64
2022-08-17T15:55:11.523Z,25.83
2022-08-17T15:57:38.756Z,25.59
2022-08-17T16:00:08.745Z,25.91
2022-08-17T16:03:45.965Z,26.14
2022-08-17T16:05:25.185Z,25.87
2022-08-17T16:07:53.608Z,26.16
2022-08-17T16:10:21.132Z,26.48
2022-08-17T16:12:49.279Z,26.65
2022-08-17T16:15:17.254Z,26.63
2022-08-17T16:17:44.160Z,26.85
2022-08-17T16:20:19.571Z,27.15
2022-08-17T16:22:46.845Z,27.24
2022-08-17T16:25:20.016Z,27.28
2022-08-17T16:27:49.339Z,27.46
2022-08-17T16:30:17.614Z,27.59
2022-08-17T16:32:45.660Z,27.38
2022-08-17T16:35:16.200Z,27.20
2022-08-17T16:37:44.635Z,27.33
2022-08-17T16:40:14.745Z,27.32
2022-08-17T16:42:43.197Z,27.29
2022-08-17T16:45:16.759Z,27.23
2022-08-17T16:47:43.718Z,27.33
2022-08-17T16:50:14.667Z,27.42
2022-08-17T16:52:42.251Z,27.50
2022-08-17T16:55:10.591Z,27.34
2022-08-17T16:57:47.224Z,27.32
2022-08-17T17:00:19.370Z,27.34
2022-08-17T17:02:48.213Z,27.07
2022-08-17T17:05:42.997Z,27.28
2022-08-17T17:08:19.586Z,27.45
2022-08-17T17:10:49.389Z,27.73
2022-08-17T17:13:37.891Z,27.83
2022-08-17T17:16:26.355Z,28.09
2022-08-17T17:19:34.368Z,28.26
2022-08-17T17:22:22.869Z,28.60
2022-08-17T17:25:08.216Z,28.57
2022-08-17T17:27:47.162Z,29.06
2022-08-17T17:30:16.222Z,29.05
2022-08-17T17:32:52.938Z,29.26
2022-08-17T17:35:31.833Z,29.44
2022-08-17T17:38:04.350Z,29.70
2022-08-17T17:40:40.074Z,30.04
2022-08-17T17:43:36.888Z,30.26
2022-08-17T17:46:09.178Z,30.39
2022-08-17T17:48:55.060Z,30.88
2022-08-17T17:52:11.161Z,31.07
2022-08-17T17:54:54.999Z,31.35
2022-08-17T17:57:58.106Z,31.61
2022-08-17T18:00:26.337Z,32.25
2022-08-17T18:03:31.054Z,32.18
2022-08-17T18:06:40.112Z,32.97
2022-08-17T18:09:39.125Z,33.13
2022-08-17T18:12:22.702Z,33.77
2022-08-17T18:14:58.657Z,33.93
2022-08-17T18:17:25.553Z,34.21
2022-08-17T18:19:55.501Z,34.28
2022-08-17T18:22:23.280Z,34.40
2022-08-17T18:24:56.471Z,34.44
2022-08-17T18:27:32.010Z,34.42
2022-08-17T18:30:15.178Z,34.56
2022-08-17T18:32:46.429Z,35.03
2022-08-17T18:35:16.066Z,36.13
2022-08-17T18:37:48.501Z,36.37
2022-08-17T18:40:19.525Z,37.43
2022-08-17T18:43:00.333Z,37.72
2022-08-17T18:45:51.189Z,38.25
2022-08-17T18:48:32.882Z,38.57
2022-08-17T18:51:39.782Z,38.45
2022-08-17T18:54:09.393Z,39.14
2022-08-17T18:56:57.418Z,39.27
2022-08-17T18:59:48.312Z,39.33
2022-08-17T19:02:27.233Z,40.54
2022-08-17T19:05:34.939Z,40.54
2022-08-17T19:08:24.751Z,41.21
2022-08-17T19:10:54.680Z,40.90
2022-08-17T19:13:44.690Z,40.48
2022-08-17T19:16:18.083Z,40.68
2022-08-17T19:18:49.052Z,40.61
2022-08-17T19:21:23.496Z,40.92
2022-08-17T19:24:11.741Z,41.03
2022-08-17T19:26:54.245Z,41.77
2022-08-17T19:29:40.651Z,41.67
2022-08-17T19:32:08.438Z,42.40
2022-08-17T19:34:36.869Z,41.86
2022-08-17T19:37:38.865Z,42.17
2022-08-17T19:40:09.083Z,43.36
2022-08-17T19:43:11.474Z,42.77
2022-08-17T19:45:49.164Z,43.64
2022-08-17T19:48:37.898Z,43.53
2022-08-17T19:51:13.110Z,43.93
2022-08-17T19:54:05.395Z,43.61
2022-08-17T19:56:40.590Z,44.23
2022-08-17T19:59:36.900Z,44.03
2022-08-17T20:02:24.055Z,44.61
2022-08-17T20:04:51.185Z,44.67
2022-08-17T20:07:31.491Z,44.40
2022-08-17T20:10:06.580Z,44.66
2022-08-17T20:12:36.322Z,44.60
2022-08-17T20:15:13.840Z,44.71
2022-08-17T20:17:43.819Z,45.47
2022-08-17T20:20:50.206Z,45.28
2022-08-17T20:23:49.400Z,45.77
2022-08-17T20:26:47.883Z,46.38
2022-08-17T20:30:06.660Z,46.56
2022-08-17T20:32:55.466Z,46.73
2022-08-17T20:35:37.935Z,46.58
2022-08-17T20:38:06.703Z,46.73
2022-08-17T20:40:36.324Z,46.65
2022-08-17T20:43:44.319Z,47.19
2022-08-17T20:46:26.875Z,47.66
2022-08-17T20:48:57.552Z,47.48
2022-08-17T20:51:27.358Z,47.43
2022-08-17T20:53:54.078Z,47.81
2022-08-17T20:56:47.446Z,47.91
2022-08-17T20:59:27.564Z,48.77
2022-08-17T21:02:21.269Z,49.41
2022-08-17T21:04:51.338Z,49.71
2022-08-17T21:07:42.920Z,49.47
2022-08-17T21:10:37.570Z,51.50
2022-08-17T21:13:22.974Z,51.89
2022-08-17T21:15:59.021Z,51.34
2022-08-17T21:18:28.821Z,51.41
2022-08-17T21:21:04.693Z,51.27
2022-08-17T21:24:08.943Z,51.52
2022-08-17T21:26:55.418Z,51.62
2022-08-17T21:29:32.592Z,51.43
2022-08-17T21:32:03.604Z,51.64
2022-08-17T21:35:07.151Z,52.02
2022-08-17T21:37:48.294Z,52.82
2022-08-17T21:40:19.003Z,52.42
2022-08-17T21:42:49.058Z,52.15
2022-08-17T21:45:35.568Z,52.33
2022-08-17T21:48:20.304Z,53.17
2022-08-17T21:50:58.462Z,53.12
2022-08-17T21:53:33.009Z,53.14
2022-08-17T21:56:00.232Z,53.05
2022-08-17T21:58:32.840Z,53.14
2022-08-17T22:01:31.702Z,53.61
2022-08-17T22:04:11.533Z,54.45
2022-08-17T22:06:56.691Z,54.70
2022-08-17T22:09:42.236Z,54.48
2022-08-17T22:12:17.267Z,55.30
2022-08-17T22:14:52.648Z,56.18
2022-08-17T22:17:46.133Z,55.99
2022-08-17T22:20:18.923Z,56.27
2022-08-17T22:23:04.419Z,56.27
2022-08-17T22:25:34.112Z,55.98
2022-08-17T22:28:03.202Z,56.07
2022-08-17T22:30:32.134Z,56.46
2022-08-17T22:33:00.309Z,56.84
2022-08-17T22:35:41.672Z,57.23
2022-08-17T22:38:20.791Z,58.94
2022-08-17T22:40:49.992Z,60.01
2022-08-17T22:43:21.262Z,60.64
2022-08-17T22:45:55.587Z,62.83
2022-08-17T22:48:27.537Z,60.78
2022-08-17T22:51:14.665Z,59.71
2022-08-17T22:54:12.341Z,59.25
2022-08-17T22:57:12.503Z,59.02
2022-08-17T22:59:44.980Z,59.59
2022-08-17T23:02:33.096Z,58.54
2022-08-17T23:05:13.014Z,58.56
2022-08-17T23:07:40.749Z,58.10
2022-08-17T23:10:11.169Z,58.08
2022-08-17T23:12:40.676Z,58.01
2022-08-17T23:15:19.016Z,58.04
2022-08-17T23:17:46.079Z,58.77
2022-08-17T23:20:15.084Z,58.07
2022-08-17T23:22:51.443Z,57.78
2022-08-17T23:25:31.563Z,58.17
2022-08-17T23:28:01.532Z,60.29
2022-08-17T23:30:31.169Z,59.55
2022-08-17T23:33:01.123Z,60.22
2022-08-17T23:35:40.613Z,60.81
2022-08-17T23:38:10.017Z,59.94
2022-08-17T23:40:37.843Z,59.39
2022-08-17T23:43:23.521Z,59.45
2022-08-17T23:45:56.187Z,59.26
2022-08-17T23:48:32.483Z,59.09
2022-08-17T23:51:05.945Z,59.22
2022-08-17T23:53:34.782Z,59.45
2022-08-17T23:56:09.543Z,59.32
2022-08-17T23:58:42.415Z,59.16
